sensor_id;sensor_type;location;lat;lon;timestamp;P1;durP1;ratioP1;P2;durP2;ratioP2
21517;SDS011;61765;45.794;24.150;2022-11-20T00:01:46;5.97;;;4.97;;
21517;SDS011;61765;45.794;24.150;2022-11-20T00:09:54;6.70;;;5.07;;
21517;SDS011;61765;45.794;24.150;2022-11-20T00:18:00;9.45;;;7.10;;
21517;SDS011;61765;45.794;24.150;2022-11-20T00:26:09;11.07;;;6.80;;
21517;SDS011;61765;45.794;24.150;2022-11-20T00:34:15;7.78;;;5.88;;
21517;SDS011;61765;45.794;24.150;2022-11-20T00:42:24;6.10;;;4.57;;
21517;SDS011;61765;45.794;24.150;2022-11-20T00:50:29;5.22;;;4.38;;
21517;SDS011;61765;45.794;24.150;2022-11-20T00:58:37;4.68;;;4.00;;
21517;SDS011;61765;45.794;24.150;2022-11-20T01:06:45;5.18;;;4.25;;
21517;SDS011;61765;45.794;24.150;2022-11-20T01:14:53;5.38;;;4.55;;
21517;SDS011;61765;45.794;24.150;2022-11-20T01:22:58;6.78;;;5.90;;
21517;SDS011;61765;45.794;24.150;2022-11-20T01:31:13;6.22;;;5.57;;
21517;SDS011;61765;45.794;24.150;2022-11-20T01:39:23;7.63;;;5.80;;
21517;SDS011;61765;45.794;24.150;2022-11-20T01:47:33;6.32;;;5.10;;
21517;SDS011;61765;45.794;24.150;2022-11-20T01:55:43;8.90;;;4.70;;
21517;SDS011;61765;45.794;24.150;2022-11-20T02:03:54;6.43;;;4.82;;
21517;SDS011;61765;45.794;24.150;2022-11-20T02:12:03;4.75;;;4.03;;
21517;SDS011;61765;45.794;24.150;2022-11-20T02:20:32;4.93;;;4.10;;
21517;SDS011;61765;45.794;24.150;2022-11-20T02:28:40;4.38;;;3.70;;
21517;SDS011;61765;45.794;24.150;2022-11-20T02:36:46;3.90;;;3.50;;
21517;SDS011;61765;45.794;24.150;2022-11-20T02:44:55;3.85;;;3.30;;
21517;SDS011;61765;45.794;24.150;2022-11-20T02:53:02;4.20;;;3.38;;
21517;SDS011;61765;45.794;24.150;2022-11-20T03:01:10;4.18;;;3.50;;
21517;SDS011;61765;45.794;24.150;2022-11-20T03:09:16;4.25;;;3.70;;
21517;SDS011;61765;45.794;24.150;2022-11-20T03:17:24;3.95;;;3.50;;
21517;SDS011;61765;45.794;24.150;2022-11-20T03:25:31;4.20;;;3.20;;
21517;SDS011;61765;45.794;24.150;2022-11-20T03:33:40;3.83;;;3.15;;
21517;SDS011;61765;45.794;24.150;2022-11-20T03:41:46;4.40;;;3.85;;
21517;SDS011;61765;45.794;24.150;2022-11-20T03:49:54;4.60;;;3.90;;
21517;SDS011;61765;45.794;24.150;2022-11-20T03:57:59;4.38;;;3.38;;
21517;SDS011;61765;45.794;24.150;2022-11-20T04:06:08;3.70;;;3.22;;
21517;SDS011;61765;45.794;24.150;2022-11-20T04:14:15;3.83;;;3.00;;
21517;SDS011;61765;45.794;24.150;2022-11-20T04:22:23;3.50;;;3.08;;
21517;SDS011;61765;45.794;24.150;2022-11-20T04:30:29;6.70;;;4.68;;
21517;SDS011;61765;45.794;24.150;2022-11-20T04:38:37;5.50;;;4.65;;
21517;SDS011;61765;45.794;24.150;2022-11-20T04:46:43;8.93;;;7.15;;
21517;SDS011;61765;45.794;24.150;2022-11-20T04:54:51;8.95;;;6.88;;
21517;SDS011;61765;45.794;24.150;2022-11-20T05:02:57;6.75;;;5.63;;
21517;SDS011;61765;45.794;24.150;2022-11-20T05:11:05;10.20;;;7.05;;
21517;SDS011;61765;45.794;24.150;2022-11-20T05:19:12;10.88;;;7.63;;
21517;SDS011;61765;45.794;24.150;2022-11-20T05:27:20;10.65;;;6.80;;
21517;SDS011;61765;45.794;24.150;2022-11-20T05:35:25;10.60;;;7.00;;
21517;SDS011;61765;45.794;24.150;2022-11-20T05:43:34;8.02;;;6.07;;
21517;SDS011;61765;45.794;24.150;2022-11-20T05:51:40;8.88;;;6.97;;
21517;SDS011;61765;45.794;24.150;2022-11-20T05:59:48;11.10;;;7.20;;
21517;SDS011;61765;45.794;24.150;2022-11-20T06:07:53;14.60;;;9.23;;
21517;SDS011;61765;45.794;24.150;2022-11-20T06:16:01;9.25;;;6.70;;
21517;SDS011;61765;45.794;24.150;2022-11-20T06:24:08;8.63;;;6.47;;
21517;SDS011;61765;45.794;24.150;2022-11-20T06:32:17;9.50;;;6.43;;
21517;SDS011;61765;45.794;24.150;2022-11-20T06:40:22;7.93;;;6.93;;
21517;SDS011;61765;45.794;24.150;2022-11-20T06:48:31;7.25;;;5.57;;
21517;SDS011;61765;45.794;24.150;2022-11-20T06:56:37;8.63;;;6.95;;
21517;SDS011;61765;45.794;24.150;2022-11-20T07:04:45;7.97;;;6.38;;
21517;SDS011;61765;45.794;24.150;2022-11-20T07:12:51;7.90;;;6.88;;
21517;SDS011;61765;45.794;24.150;2022-11-20T07:21:02;9.88;;;7.20;;
21517;SDS011;61765;45.794;24.150;2022-11-20T07:29:08;8.18;;;6.60;;
21517;SDS011;61765;45.794;24.150;2022-11-20T07:37:17;12.07;;;7.65;;
21517;SDS011;61765;45.794;24.150;2022-11-20T07:45:23;8.73;;;6.72;;
21517;SDS011;61765;45.794;24.150;2022-11-20T07:53:31;9.88;;;6.68;;
21517;SDS011;61765;45.794;24.150;2022-11-20T08:01:37;9.82;;;7.68;;
21517;SDS011;61765;45.794;24.150;2022-11-20T08:09:45;12.13;;;7.93;;
21517;SDS011;61765;45.794;24.150;2022-11-20T08:17:50;10.55;;;7.80;;
21517;SDS011;61765;45.794;24.150;2022-11-20T08:26:18;11.23;;;8.05;;
21517;SDS011;61765;45.794;24.150;2022-11-20T08:34:25;10.48;;;7.38;;
21517;SDS011;61765;45.794;24.150;2022-11-20T08:42:33;13.05;;;8.80;;
21517;SDS011;61765;45.794;24.150;2022-11-20T08:50:38;13.50;;;9.15;;
21517;SDS011;61765;45.794;24.150;2022-11-20T08:58:46;13.00;;;9.73;;
21517;SDS011;61765;45.794;24.150;2022-11-20T09:07:11;14.07;;;9.30;;
21517;SDS011;61765;45.794;24.150;2022-11-20T09:15:19;13.32;;;9.35;;
21517;SDS011;61765;45.794;24.150;2022-11-20T09:23:25;15.25;;;10.70;;
21517;SDS011;61765;45.794;24.150;2022-11-20T09:31:33;12.68;;;8.52;;
21517;SDS011;61765;45.794;24.150;2022-11-20T09:39:39;12.48;;;8.93;;
21517;SDS011;61765;45.794;24.150;2022-11-20T09:47:52;22.15;;;11.48;;
21517;SDS011;61765;45.794;24.150;2022-11-20T09:56:08;11.90;;;9.05;;
21517;SDS011;61765;45.794;24.150;2022-11-20T10:04:24;11.82;;;8.70;;
21517;SDS011;61765;45.794;24.150;2022-11-20T10:12:33;14.77;;;10.27;;
21517;SDS011;61765;45.794;24.150;2022-11-20T10:20:50;12.52;;;8.88;;
21517;SDS011;61765;45.794;24.150;2022-11-20T10:29:07;14.00;;;10.27;;
21517;SDS011;61765;45.794;24.150;2022-11-20T10:37:21;14.77;;;10.07;;
21517;SDS011;61765;45.794;24.150;2022-11-20T10:45:34;18.10;;;11.13;;
21517;SDS011;61765;45.794;24.150;2022-11-20T10:53:54;12.93;;;9.40;;
21517;SDS011;61765;45.794;24.150;2022-11-20T11:02:15;14.95;;;10.30;;
21517;SDS011;61765;45.794;24.150;2022-11-20T11:10:26;13.57;;;9.80;;
21517;SDS011;61765;45.794;24.150;2022-11-20T11:18:37;16.27;;;10.52;;
21517;SDS011;61765;45.794;24.150;2022-11-20T11:26:53;15.82;;;10.35;;
21517;SDS011;61765;45.794;24.150;2022-11-20T11:35:06;16.15;;;11.77;;
21517;SDS011;61765;45.794;24.150;2022-11-20T11:43:26;16.08;;;11.75;;
21517;SDS011;61765;45.794;24.150;2022-11-20T11:51:50;13.33;;;10.03;;
21517;SDS011;61765;45.794;24.150;2022-11-20T12:00:12;14.48;;;10.60;;
21517;SDS011;61765;45.794;24.150;2022-11-20T12:08:21;17.30;;;11.65;;
21517;SDS011;61765;45.794;24.150;2022-11-20T12:16:35;16.30;;;11.65;;
21517;SDS011;61765;45.794;24.150;2022-11-20T12:24:43;15.77;;;11.07;;
21517;SDS011;61765;45.794;24.150;2022-11-20T12:41:40;14.35;;;10.32;;
21517;SDS011;61765;45.794;24.150;2022-11-20T12:58:20;14.50;;;10.38;;
21517;SDS011;61765;45.794;24.150;2022-11-20T13:06:37;15.38;;;10.95;;
21517;SDS011;61765;45.794;24.150;2022-11-20T13:14:50;15.45;;;10.32;;
21517;SDS011;61765;45.794;24.150;2022-11-20T13:23:02;12.85;;;9.02;;
21517;SDS011;61765;45.794;24.150;2022-11-20T13:31:21;15.55;;;10.55;;
21517;SDS011;61765;45.794;24.150;2022-11-20T13:39:40;16.85;;;11.63;;
21517;SDS011;61765;45.794;24.150;2022-11-20T13:47:50;18.85;;;12.20;;
21517;SDS011;61765;45.794;24.150;2022-11-20T13:55:59;14.73;;;10.32;;
21517;SDS011;61765;45.794;24.150;2022-11-20T14:04:12;14.75;;;10.90;;
21517;SDS011;61765;45.794;24.150;2022-11-20T14:12:23;15.00;;;10.90;;
21517;SDS011;61765;45.794;24.150;2022-11-20T14:20:36;14.32;;;10.00;;
21517;SDS011;61765;45.794;24.150;2022-11-20T14:28:43;14.15;;;10.23;;
21517;SDS011;61765;45.794;24.150;2022-11-20T14:36:58;14.60;;;10.60;;
21517;SDS011;61765;45.794;24.150;2022-11-20T14:45:05;15.25;;;10.38;;
21517;SDS011;61765;45.794;24.150;2022-11-20T14:53:24;19.23;;;11.57;;
21517;SDS011;61765;45.794;24.150;2022-11-20T15:01:31;14.50;;;9.95;;
21517;SDS011;61765;45.794;24.150;2022-11-20T15:09:40;15.05;;;10.80;;
21517;SDS011;61765;45.794;24.150;2022-11-20T15:17:45;13.07;;;9.48;;
21517;SDS011;61765;45.794;24.150;2022-11-20T15:25:53;18.98;;;13.93;;
21517;SDS011;61765;45.794;24.150;2022-11-20T15:33:59;18.63;;;12.10;;
21517;SDS011;61765;45.794;24.150;2022-11-20T15:42:07;16.90;;;11.70;;
21517;SDS011;61765;45.794;24.150;2022-11-20T15:50:13;19.70;;;12.98;;
21517;SDS011;61765;45.794;24.150;2022-11-20T15:58:24;16.17;;;11.27;;
21517;SDS011;61765;45.794;24.150;2022-11-20T16:06:30;20.50;;;12.75;;
21517;SDS011;61765;45.794;24.150;2022-11-20T16:14:38;19.88;;;13.63;;
21517;SDS011;61765;45.794;24.150;2022-11-20T16:22:55;24.65;;;14.55;;
21517;SDS011;61765;45.794;24.150;2022-11-20T16:31:09;23.83;;;13.50;;
21517;SDS011;61765;45.794;24.150;2022-11-20T16:39:15;19.80;;;12.60;;
21517;SDS011;61765;45.794;24.150;2022-11-20T16:47:27;17.73;;;12.32;;
21517;SDS011;61765;45.794;24.150;2022-11-20T16:55:32;20.73;;;13.52;;
21517;SDS011;61765;45.794;24.150;2022-11-20T17:03:40;19.77;;;13.95;;
21517;SDS011;61765;45.794;24.150;2022-11-20T17:11:48;19.88;;;13.60;;
21517;SDS011;61765;45.794;24.150;2022-11-20T17:19:56;18.67;;;12.57;;
21517;SDS011;61765;45.794;24.150;2022-11-20T17:28:01;17.67;;;12.73;;
21517;SDS011;61765;45.794;24.150;2022-11-20T17:36:10;16.75;;;11.55;;
21517;SDS011;61765;45.794;24.150;2022-11-20T17:44:17;15.48;;;11.30;;
21517;SDS011;61765;45.794;24.150;2022-11-20T17:52:27;18.23;;;11.77;;
21517;SDS011;61765;45.794;24.150;2022-11-20T18:00:33;17.48;;;12.45;;
21517;SDS011;61765;45.794;24.150;2022-11-20T18:08:41;17.67;;;11.88;;
21517;SDS011;61765;45.794;24.150;2022-11-20T18:16:47;19.27;;;12.63;;
21517;SDS011;61765;45.794;24.150;2022-11-20T18:24:57;19.60;;;13.07;;
21517;SDS011;61765;45.794;24.150;2022-11-20T18:33:05;20.58;;;13.10;;
21517;SDS011;61765;45.794;24.150;2022-11-20T18:41:13;18.45;;;12.75;;
21517;SDS011;61765;45.794;24.150;2022-11-20T18:49:32;19.92;;;12.60;;
21517;SDS011;61765;45.794;24.150;2022-11-20T18:57:40;19.75;;;13.32;;
21517;SDS011;61765;45.794;24.150;2022-11-20T19:05:45;26.83;;;17.27;;
21517;SDS011;61765;45.794;24.150;2022-11-20T19:13:53;30.30;;;18.75;;
21517;SDS011;61765;45.794;24.150;2022-11-20T19:21:59;27.10;;;17.38;;
21517;SDS011;61765;45.794;24.150;2022-11-20T19:30:08;28.75;;;16.20;;
21517;SDS011;61765;45.794;24.150;2022-11-20T19:38:14;26.15;;;17.00;;
21517;SDS011;61765;45.794;24.150;2022-11-20T19:46:22;30.85;;;17.58;;
21517;SDS011;61765;45.794;24.150;2022-11-20T19:54:28;33.03;;;18.23;;
21517;SDS011;61765;45.794;24.150;2022-11-20T20:02:36;31.73;;;18.38;;
21517;SDS011;61765;45.794;24.150;2022-11-20T20:10:41;29.52;;;16.77;;
21517;SDS011;61765;45.794;24.150;2022-11-20T20:18:52;35.20;;;18.77;;
21517;SDS011;61765;45.794;24.150;2022-11-20T20:27:02;33.25;;;19.33;;
21517;SDS011;61765;45.794;24.150;2022-11-20T20:35:10;32.55;;;18.58;;
21517;SDS011;61765;45.794;24.150;2022-11-20T20:43:15;33.78;;;19.17;;
21517;SDS011;61765;45.794;24.150;2022-11-20T20:51:24;32.20;;;18.33;;
21517;SDS011;61765;45.794;24.150;2022-11-20T20:59:29;36.70;;;19.98;;
21517;SDS011;61765;45.794;24.150;2022-11-20T21:07:37;40.10;;;22.02;;
21517;SDS011;61765;45.794;24.150;2022-11-20T21:16:03;37.72;;;20.35;;
21517;SDS011;61765;45.794;24.150;2022-11-20T21:24:11;35.55;;;19.85;;
21517;SDS011;61765;45.794;24.150;2022-11-20T21:32:17;31.73;;;18.23;;
21517;SDS011;61765;45.794;24.150;2022-11-20T21:40:24;29.60;;;17.00;;
21517;SDS011;61765;45.794;24.150;2022-11-20T21:48:30;36.30;;;18.15;;
21517;SDS011;61765;45.794;24.150;2022-11-20T21:56:39;38.35;;;18.85;;
21517;SDS011;61765;45.794;24.150;2022-11-20T22:13:35;32.08;;;17.08;;
21517;SDS011;61765;45.794;24.150;2022-11-20T22:21:53;35.20;;;18.55;;
21517;SDS011;61765;45.794;24.150;2022-11-20T22:30:02;33.67;;;18.58;;
21517;SDS011;61765;45.794;24.150;2022-11-20T22:38:07;27.95;;;15.70;;
21517;SDS011;61765;45.794;24.150;2022-11-20T22:46:16;23.60;;;14.70;;
21517;SDS011;61765;45.794;24.150;2022-11-20T22:54:25;19.45;;;11.63;;
21517;SDS011;61765;45.794;24.150;2022-11-20T23:02:33;17.42;;;10.52;;
21517;SDS011;61765;45.794;24.150;2022-11-20T23:10:38;15.23;;;9.85;;
21517;SDS011;61765;45.794;24.150;2022-11-20T23:18:46;18.27;;;10.50;;
21517;SDS011;61765;45.794;24.150;2022-11-20T23:26:51;16.38;;;10.38;;
21517;SDS011;61765;45.794;24.150;2022-11-20T23:34:59;19.95;;;12.65;;
21517;SDS011;61765;45.794;24.150;2022-11-20T23:43:05;17.70;;;10.68;;
21517;SDS011;61765;45.794;24.150;2022-11-20T23:51:21;14.35;;;9.25;;
21517;SDS011;61765;45.794;24.150;2022-11-20T23:59:27;13.73;;;9.48;;
